Time;durP1;ratioP1;P1;durP2;ratioP2;P2;SDS_P1;SDS_P2;PMS_P1;PMS_P2;Temp;Humidity;BMP_temperature;BMP_pressure;BME280_temperature;BME280_humidity;BME280_pressure;Samples;Min_cycle;Max_cycle;Signal;HPM_P1;HPM_P2
2023/07/27 00:02:38;;;;;;;1.88;1.40;;;;;;;21.86;42.87;100934.38;16118991;19;134590;-69
2023/07/27 00:08:00;;;;;;;1.85;1.10;;;;;;;21.83;43.11;100919.88;16111370;19;130674;-68
2023/07/27 00:13:22;;;;;;;1.67;1.20;;;;;;;21.83;43.04;100919.88;16110112;19;129862;-69
2023/07/27 00:18:44;;;;;;;1.20;1.10;;;;;;;21.82;42.89;100912.63;16116220;19;129801;-68
2023/07/27 00:24:06;;;;;;;1.60;1.10;;;;;;;21.82;42.98;100912.63;16107434;19;130972;-69
2023/07/27 00:29:28;;;;;;;1.40;1.10;;;;;;;21.80;42.90;100902.88;16112866;19;130405;-68
2023/07/27 00:34:51;;;;;;;1.80;1.30;;;;;;;21.80;43.09;100892.56;16112563;19;129589;-68
2023/07/27 00:40:13;;;;;;;1.65;0.95;;;;;;;21.79;42.80;100901.19;16113241;19;135382;-68
2023/07/27 00:45:35;;;;;;;1.67;1.35;;;;;;;21.79;42.98;100895.63;16110170;19;130267;-68
2023/07/27 00:50:57;;;;;;;1.30;1.05;;;;;;;21.77;43.06;100887.56;16113303;19;130475;-67
2023/07/27 00:56:20;;;;;;;1.48;1.10;;;;;;;21.77;43.16;100884.78;16101857;19;130674;-67
2023/07/27 01:01:41;;;;;;;2.17;1.20;;;;;;;21.77;42.85;100884.78;16111039;19;129932;-68
2023/07/27 01:07:03;;;;;;;1.73;1.10;;;;;;;21.76;42.98;100866.38;16107574;19;130295;-68
2023/07/27 01:12:34;;;;;;;1.95;1.05;;;;;;;21.76;42.94;100852.47;16108773;19;129783;-68
2023/07/27 01:18:03;;;;;;;1.35;0.90;;;;;;;21.77;43.21;100839.38;16106600;19;130564;-68
2023/07/27 01:23:57;;;;;;;1.10;0.98;;;;;;;21.75;43.19;100828.50;16106391;19;131125;-67
2023/07/27 01:29:32;;;;;;;1.38;0.93;;;;;;;21.75;42.96;100820.16;16103288;19;129962;-68
2023/07/27 01:34:57;;;;;;;1.23;1.00;;;;;;;21.73;43.21;100802.88;16108828;19;131784;-68
2023/07/27 01:40:20;;;;;;;1.27;0.90;;;;;;;21.72;43.43;100792.84;16109708;19;130681;-69
2023/07/27 01:45:44;;;;;;;1.02;0.70;;;;;;;21.73;43.33;100793.66;16104715;19;130284;-68
2023/07/27 01:51:08;;;;;;;0.95;0.80;;;;;;;21.71;43.35;100774.47;16108650;19;129400;-68
2023/07/27 01:56:31;;;;;;;0.82;0.80;;;;;;;21.71;43.17;100765.28;16105879;19;130666;-68
2023/07/27 02:01:54;;;;;;;1.50;0.98;;;;;;;21.70;43.63;100753.28;16109439;19;129370;-68
2023/07/27 02:07:17;;;;;;;1.38;1.00;;;;;;;21.70;43.24;100725.44;16113798;19;130294;-69
2023/07/27 02:12:44;;;;;;;1.10;0.75;;;;;;;21.69;43.38;100717.38;16126226;19;129588;-68
2023/07/27 02:18:14;;;;;;;1.25;0.95;;;;;;;21.69;43.44;100709.03;16115924;19;130006;-68
2023/07/27 02:23:37;;;;;;;1.45;1.02;;;;;;;21.68;43.48;100697.03;16127128;19;129769;-67
2023/07/27 02:28:59;;;;;;;1.92;1.13;;;;;;;21.67;43.60;100678.66;16123325;19;131445;-67
2023/07/27 02:34:21;;;;;;;1.27;0.95;;;;;;;21.67;43.41;100675.88;16120123;19;129712;-68
2023/07/27 02:39:43;;;;;;;1.10;0.88;;;;;;;21.67;43.39;100659.16;16118634;19;130501;-65
2023/07/27 02:45:05;;;;;;;1.00;0.80;;;;;;;21.66;43.61;100657.53;16116073;19;129574;-68
2023/07/27 02:50:27;;;;;;;0.70;0.70;;;;;;;21.64;43.41;100643.03;16112012;19;130531;-68
2023/07/27 02:55:59;;;;;;;1.00;0.75;;;;;;;21.66;43.24;100640.81;16116594;19;130267;-68
2023/07/27 03:01:21;;;;;;;1.20;0.90;;;;;;;21.64;43.32;100641.06;16115553;19;131050;-68
2023/07/27 03:06:43;;;;;;;1.73;0.70;;;;;;;21.65;43.61;100628.00;16117878;19;130616;-69
2023/07/27 03:12:05;;;;;;;1.20;0.80;;;;;;;21.65;43.27;100616.88;16116719;19;131081;-68
2023/07/27 03:17:27;;;;;;;1.50;0.80;;;;;;;21.64;43.86;100615.19;16115059;19;129956;-67
2023/07/27 03:22:49;;;;;;;1.05;0.80;;;;;;;21.64;43.65;100606.84;16114829;19;129660;-68
2023/07/27 03:28:11;;;;;;;0.90;0.60;;;;;;;21.63;43.65;100607.97;16109902;19;130042;-68
2023/07/27 03:33:33;;;;;;;1.10;0.88;;;;;;;21.63;43.65;100602.41;16116932;19;132022;-67
2023/07/27 03:38:55;;;;;;;0.70;0.70;;;;;;;21.63;43.87;100591.25;16109252;19;131227;-67
2023/07/27 03:44:17;;;;;;;1.25;0.70;;;;;;;21.62;43.70;100584.84;16115697;19;130120;-67
2023/07/27 03:49:39;;;;;;;3.28;0.80;;;;;;;21.61;43.69;100572.03;16099961;19;130259;-67
2023/07/27 03:55:02;;;;;;;2.23;1.00;;;;;;;21.61;43.47;100566.47;16101386;19;131571;-67
2023/07/27 04:00:24;;;;;;;1.42;0.90;;;;;;;21.60;43.92;100559.22;16099412;19;130501;-67
2023/07/27 04:05:46;;;;;;;1.58;0.57;;;;;;;21.60;43.80;100539.72;16104628;19;129676;-67
2023/07/27 04:11:08;;;;;;;3.65;0.73;;;;;;;21.60;43.56;100538.91;16110893;19;130267;-68
2023/07/27 04:16:30;;;;;;;2.15;1.00;;;;;;;21.60;43.69;100530.56;16114809;19;130892;-67
2023/07/27 04:21:52;;;;;;;2.10;0.88;;;;;;;21.59;43.74;100523.31;16113794;19;130199;-67
2023/07/27 04:27:14;;;;;;;2.88;1.00;;;;;;;21.58;44.09;100522.50;16114991;19;130617;-67
2023/07/27 04:32:37;;;;;;;3.47;0.90;;;;;;;21.57;43.96;100523.59;16109839;19;131093;-67
2023/07/27 04:37:58;;;;;;;6.43;0.85;;;;;;;21.57;43.89;100519.97;16116626;19;130641;-67
2023/07/27 04:43:20;;;;;;;4.07;1.17;;;;;;;21.55;43.96;100516.63;16114519;19;130794;-67
2023/07/27 04:48:42;;;;;;;3.97;0.90;;;;;;;21.56;43.93;100518.28;16112164;19;129954;-67
2023/07/27 04:54:04;;;;;;;1.60;0.93;;;;;;;21.56;44.06;100507.16;16113914;19;130393;-67
2023/07/27 04:59:26;;;;;;;5.78;1.10;;;;;;;21.55;44.12;100506.34;16112115;19;131727;-67
2023/07/27 05:04:51;;;;;;;3.53;0.93;;;;;;;21.55;44.13;100488.78;16107895;19;131029;-68
2023/07/27 05:10:13;;;;;;;1.67;1.00;;;;;;;21.52;43.87;100474.34;16110907;19;129667;-67
2023/07/27 05:15:35;;;;;;;2.30;1.00;;;;;;;21.54;44.34;100459.31;16110870;19;133182;-66
2023/07/27 05:20:58;;;;;;;3.92;1.02;;;;;;;21.55;44.50;100460.97;16110349;19;130454;-68
2023/07/27 05:26:20;;;;;;;1.80;0.80;;;;;;;21.55;44.44;100466.53;16113832;19;130960;-69
2023/07/27 05:31:42;;;;;;;3.72;0.85;;;;;;;21.56;44.04;100454.28;16112230;19;129793;-67
2023/07/27 05:37:04;;;;;;;2.70;0.93;;;;;;;21.57;44.11;100447.59;16102275;19;130778;-61
2023/07/27 05:42:26;;;;;;;1.55;0.75;;;;;;;21.62;44.07;100453.19;16116582;19;130957;-66
2023/07/27 05:47:51;;;;;;;2.20;0.80;;;;;;;21.60;44.13;100447.06;16129584;19;129359;-64
2023/07/27 05:53:13;;;;;;;1.08;0.73;;;;;;;21.59;44.29;100445.38;16126794;19;133969;-65
2023/07/27 05:58:36;;;;;;;1.10;0.80;;;;;;;21.58;44.41;100449.28;16126552;19;130340;-65
2023/07/27 06:04:00;;;;;;;1.48;0.88;;;;;;;21.57;44.34;100447.59;16128383;19;129657;-65
2023/07/27 06:09:30;;;;;;;2.40;0.98;;;;;;;21.56;44.47;100449.56;16120556;19;129880;-65
2023/07/27 06:14:52;;;;;;;1.98;0.93;;;;;;;21.56;44.62;100451.50;16121999;19;129494;-63
2023/07/27 06:20:17;;;;;;;4.85;0.80;;;;;;;21.57;44.81;100442.03;16121535;19;128972;-63
2023/07/27 06:25:43;;;;;;;2.58;0.73;;;;;;;21.57;44.70;100437.31;16121634;19;131444;-63
2023/07/27 06:31:05;;;;;;;2.50;0.82;;;;;;;21.56;45.18;100434.78;16124942;19;130338;-63
2023/07/27 06:36:27;;;;;;;2.95;0.80;;;;;;;21.55;44.85;100444.25;16121662;19;131391;-63
2023/07/27 06:41:49;;;;;;;4.80;0.65;;;;;;;21.56;45.06;100434.78;16120975;19;130532;-63
2023/07/27 06:47:11;;;;;;;3.10;0.80;;;;;;;21.55;44.99;100433.97;16119756;19;130053;-62
2023/07/27 06:52:33;;;;;;;1.17;0.80;;;;;;;21.56;45.48;100429.22;16124423;19;134286;-63
2023/07/27 06:57:56;;;;;;;2.25;0.70;;;;;;;21.57;45.08;100436.47;16123626;19;129619;-63
2023/07/27 07:03:18;;;;;;;3.55;0.68;;;;;;;21.56;45.40;100432.00;16123424;19;129963;-63
2023/07/27 07:08:40;;;;;;;2.20;0.80;;;;;;;21.57;45.71;100431.75;16123135;19;129697;-64
2023/07/27 07:14:02;;;;;;;1.42;0.70;;;;;;;21.57;45.87;100436.47;16117016;19;131278;-63
2023/07/27 07:19:24;;;;;;;0.98;0.70;;;;;;;21.58;46.00;100433.44;16119642;19;131492;-63
2023/07/27 07:24:45;;;;;;;1.45;0.70;;;;;;;21.58;45.78;100438.13;16116514;19;129486;-63
2023/07/27 07:30:08;;;;;;;1.40;0.73;;;;;;;21.58;45.94;100432.56;16119865;19;130138;-62
2023/07/27 07:35:31;;;;;;;1.00;0.60;;;;;;;21.58;46.12;100422.28;16122017;19;131454;-63
2023/07/27 07:40:53;;;;;;;2.70;0.75;;;;;;;21.59;45.80;100423.13;16118747;19;129754;-63
2023/07/27 07:46:15;;;;;;;5.25;0.70;;;;;;;21.60;45.99;100430.34;16116887;19;129550;-62
2023/07/27 07:51:37;;;;;;;4.25;0.98;;;;;;;21.58;46.23;100427.84;16119670;19;129347;-62
2023/07/27 07:56:59;;;;;;;1.10;0.75;;;;;;;21.59;46.48;100428.69;16118742;19;129584;-63
2023/07/27 08:02:21;;;;;;;1.35;0.60;;;;;;;21.58;46.33;100425.06;16114241;19;129488;-63
2023/07/27 08:07:43;;;;;;;1.70;0.60;;;;;;;21.59;46.23;100423.13;16117031;19;129512;-62
2023/07/27 08:13:05;;;;;;;3.35;0.73;;;;;;;21.60;46.34;100422.00;16115755;19;131128;-63
2023/07/27 08:18:28;;;;;;;1.10;0.57;;;;;;;21.59;46.69;100417.53;16114316;19;132381;-63
2023/07/27 08:23:53;;;;;;;2.05;0.50;;;;;;;21.61;46.36;100412.53;16114599;19;129562;-63
2023/07/27 08:29:15;;;;;;;0.83;0.70;;;;;;;21.59;46.37;100411.97;16115566;19;132672;-63
2023/07/27 08:34:37;;;;;;;1.80;0.60;;;;;;;21.60;46.79;100416.44;16117473;19;129559;-63
2023/07/27 08:39:59;;;;;;;1.77;0.50;;;;;;;21.61;46.81;100415.31;16117038;19;129868;-63
2023/07/27 08:45:22;;;;;;;2.35;0.60;;;;;;;21.62;46.96;100417.00;16113652;19;129569;-63
2023/07/27 08:50:46;;;;;;;3.22;0.55;;;;;;;21.62;46.65;100412.25;16111196;19;130217;-63
2023/07/27 08:56:08;;;;;;;1.20;0.50;;;;;;;21.62;46.76;100423.38;16111481;19;129637;-63
2023/07/27 09:01:31;;;;;;;1.15;0.40;;;;;;;21.63;46.69;100418.66;16110041;19;129729;-63
2023/07/27 09:06:53;;;;;;;2.55;0.60;;;;;;;21.65;46.91;100413.66;16112498;19;132070;-63
2023/07/27 09:12:18;;;;;;;1.38;0.50;;;;;;;21.66;47.02;100413.38;16108031;19;129563;-62
2023/07/27 09:17:40;;;;;;;1.75;0.50;;;;;;;21.66;47.38;100410.59;16122401;19;130777;-63
2023/07/27 09:23:02;;;;;;;1.83;0.52;;;;;;;21.68;46.95;100407.50;16125950;19;130599;-63
2023/07/27 09:28:26;;;;;;;2.53;0.40;;;;;;;21.69;47.21;100406.41;16126256;19;130754;-63
2023/07/27 09:33:50;;;;;;;1.75;0.50;;;;;;;21.69;47.19;100406.41;16126360;19;129466;-63
2023/07/27 09:39:14;;;;;;;0.60;0.30;;;;;;;21.68;47.19;100401.94;16125846;19;129556;-62
2023/07/27 09:44:53;;;;;;;2.65;0.40;;;;;;;21.68;47.21;100407.50;16125840;19;131048;-62
2023/07/27 09:50:15;;;;;;;2.08;0.65;;;;;;;21.68;47.22;100404.72;16120404;19;130500;-63
2023/07/27 09:55:38;;;;;;;0.75;0.40;;;;;;;21.68;47.50;100410.28;16125509;19;131377;-62
2023/07/27 10:01:00;;;;;;;1.20;0.40;;;;;;;21.68;47.58;100418.66;16123012;19;130049;-62
2023/07/27 10:06:25;;;;;;;1.65;0.32;;;;;;;21.68;47.27;100415.88;16123224;19;129765;-62
2023/07/27 10:11:56;;;;;;;1.80;0.52;;;;;;;21.70;47.87;100418.38;16123305;19;130397;-62
2023/07/27 10:17:18;;;;;;;1.95;0.20;;;;;;;21.67;47.70;100409.47;16126181;19;130914;-63
2023/07/27 10:22:40;;;;;;;0.50;0.30;;;;;;;21.71;48.02;100408.91;16125862;19;130304;-63
2023/07/27 10:28:04;;;;;;;2.00;0.47;;;;;;;21.71;47.97;100403.34;16119656;19;129255;-62
2023/07/27 10:33:26;;;;;;;1.98;0.43;;;;;;;21.72;47.69;100399.47;16122658;19;130182;-63
2023/07/27 10:38:55;;;;;;;1.67;0.45;;;;;;;21.74;48.23;100408.34;16126566;19;130887;-63
2023/07/27 10:44:17;;;;;;;1.75;0.52;;;;;;;21.73;48.12;100407.53;16125003;19;129429;-62
2023/07/27 10:49:45;;;;;;;3.88;0.40;;;;;;;21.75;48.36;100413.66;16118795;19;130017;-62
2023/07/27 10:55:07;;;;;;;5.70;0.63;;;;;;;21.73;47.89;100415.88;16122066;19;130438;-62
2023/07/27 11:00:36;;;;;;;3.90;0.70;;;;;;;21.76;48.33;100412.53;16122066;19;130839;-63
2023/07/27 11:06:06;;;;;;;2.40;0.65;;;;;;;21.77;49.16;100413.34;16120282;19;131886;-63
2023/07/27 11:11:28;;;;;;;2.80;0.77;;;;;;;21.77;48.89;100407.78;16125376;19;130187;-64
2023/07/27 11:16:51;;;;;;;2.92;0.80;;;;;;;21.78;49.38;100401.97;16126973;19;129622;-63
2023/07/27 11:22:15;;;;;;;2.72;0.70;;;;;;;21.79;49.39;100400.81;16130325;19;135121;-64
2023/07/27 11:27:40;;;;;;;4.25;0.70;;;;;;;21.81;49.87;100397.78;16132983;19;129309;-64
2023/07/27 11:33:04;;;;;;;2.90;0.80;;;;;;;21.81;49.89;100398.59;16166584;19;131122;-63
2023/07/27 11:38:27;;;;;;;1.80;0.50;;;;;;;21.82;49.71;100399.44;16189557;19;129412;-64
2023/07/27 11:43:55;;;;;;;1.10;0.43;;;;;;;21.82;49.71;100397.47;16191273;19;130474;-63
2023/07/27 11:49:20;;;;;;;1.10;0.32;;;;;;;21.81;50.08;100395.81;16193009;19;129026;-63
2023/07/27 11:54:42;;;;;;;0.95;0.40;;;;;;;21.81;50.03;100401.38;16192553;19;128443;-62
2023/07/27 12:00:14;;;;;;;3.97;0.50;;;;;;;21.81;49.75;100401.38;16193351;19;130495;-65
2023/07/27 12:05:36;;;;;;;2.42;0.55;;;;;;;21.81;49.66;100398.59;16189915;19;129197;-64
2023/07/27 12:11:01;;;;;;;4.18;0.55;;;;;;;21.80;50.02;100404.44;16182136;19;133732;-64
2023/07/27 12:16:24;;;;;;;2.22;0.45;;;;;;;21.79;50.27;100402.78;16178748;19;128923;-64
2023/07/27 12:21:48;;;;;;;0.95;0.50;;;;;;;21.79;49.70;100414.72;16175123;19;128833;-62
2023/07/27 12:27:14;;;;;;;1.52;0.57;;;;;;;21.80;49.95;100412.81;16172371;19;130368;-68
2023/07/27 12:32:38;;;;;;;3.28;0.68;;;;;;;21.82;49.84;100411.41;16189531;19;129136;-67
2023/07/27 12:38:00;;;;;;;6.88;0.70;;;;;;;21.82;49.97;100405.00;16186512;19;128703;-62
2023/07/27 12:43:25;;;;;;;5.68;0.70;;;;;;;21.82;50.10;100414.19;16193334;19;128248;-68
2023/07/27 12:48:47;;;;;;;5.38;0.90;;;;;;;21.83;49.84;100413.06;16185386;19;129512;-68
2023/07/27 12:54:09;;;;;;;9.65;1.00;;;;;;;21.85;50.06;100420.31;16155823;19;130058;-69
2023/07/27 12:59:31;;;;;;;6.65;0.80;;;;;;;21.88;50.20;100414.19;16116496;19;130155;-67
2023/07/27 13:04:53;;;;;;;11.75;1.50;;;;;;;21.89;49.80;100413.06;16136146;19;131868;-63
2023/07/27 13:10:17;;;;;;;10.70;0.80;;;;;;;21.93;50.32;100415.00;16147132;19;131755;-76
2023/07/27 13:15:39;;;;;;;8.10;1.17;;;;;;;21.94;49.79;100418.63;16128460;19;130165;-76
2023/07/27 13:21:01;;;;;;;2.60;0.75;;;;;;;21.94;50.09;100404.69;16122124;19;130699;-77
2023/07/27 13:26:23;;;;;;;3.88;0.70;;;;;;;21.96;50.05;100413.59;16116952;19;129785;-68
2023/07/27 13:31:45;;;;;;;3.28;0.90;;;;;;;21.94;50.11;100421.41;16121486;19;129820;-66
2023/07/27 13:37:07;;;;;;;1.58;0.60;;;;;;;21.93;50.21;100417.78;16114855;19;129632;-68
2023/07/27 13:42:29;;;;;;;2.35;0.80;;;;;;;21.92;50.30;100426.41;16117602;19;130216;-67
2023/07/27 13:47:51;;;;;;;4.00;0.70;;;;;;;21.92;50.03;100415.28;16115723;19;129507;-67
2023/07/27 13:53:28;;;;;;;5.53;0.85;;;;;;;21.92;50.07;100420.84;16112638;19;130638;-66
2023/07/27 13:58:50;;;;;;;4.80;0.80;;;;;;;21.92;50.18;100423.63;16117009;19;129441;-66
2023/07/27 14:04:12;;;;;;;3.88;0.80;;;;;;;21.90;49.94;100428.66;16124311;19;129576;-66
2023/07/27 14:09:34;;;;;;;4.07;0.82;;;;;;;21.88;49.92;100428.09;16133676;19;129883;-66
2023/07/27 14:14:56;;;;;;;5.85;0.90;;;;;;;21.88;49.79;100426.16;16141275;19;129418;-66
2023/07/27 14:20:19;;;;;;;4.43;1.00;;;;;;;21.87;50.09;100424.47;16164439;19;132426;-67
2023/07/27 14:25:43;;;;;;;6.10;0.90;;;;;;;21.86;50.15;100428.38;16210945;19;130233;-64
2023/07/27 14:31:05;;;;;;;4.60;0.93;;;;;;;21.87;50.61;100437.56;16204061;19;129512;-63
2023/07/27 14:36:34;;;;;;;21.23;1.92;;;;;;;21.89;50.44;100432.56;16184017;19;129391;-68
2023/07/27 14:41:58;;;;;;;16.93;1.73;;;;;;;21.86;51.65;100445.06;16206388;19;130278;-65
2023/07/27 14:47:22;;;;;;;55.55;4.45;;;;;;;21.99;52.06;100449.25;16171259;19;129042;-60
2023/07/27 14:52:44;;;;;;;28.10;1.83;;;;;;;22.08;51.83;100453.13;16130107;19;130685;-58
2023/07/27 14:58:06;;;;;;;55.30;3.38;;;;;;;22.18;51.70;100452.28;16124689;19;131898;-61
2023/07/27 15:03:28;;;;;;;26.50;2.78;;;;;;;22.24;51.63;100451.16;16121536;19;131203;-63
2023/07/27 15:09:10;;;;;;;42.72;3.50;;;;;;;22.27;51.84;100460.94;16137664;19;130124;-58
2023/07/27 15:14:32;;;;;;;38.70;3.47;;;;;;;22.29;51.72;100447.53;16118404;19;130281;-60
2023/07/27 15:19:54;;;;;;;32.70;3.08;;;;;;;22.26;52.05;100457.31;16121860;19;129589;-58
2023/07/27 15:25:16;;;;;;;42.85;3.55;;;;;;;22.23;51.88;100454.25;16122249;19;129526;-55
2023/07/27 15:30:38;;;;;;;32.80;3.22;;;;;;;22.20;52.73;100455.63;16117965;19;133838;-57
2023/07/27 15:36:01;;;;;;;31.63;3.33;;;;;;;22.15;53.29;100452.03;16106668;19;130697;-58
2023/07/27 15:41:22;;;;;;;24.58;2.92;;;;;;;22.07;53.31;100450.63;16099566;19;131350;-56
2023/07/27 15:46:44;;;;;;;19.25;2.15;;;;;;;22.01;54.13;100452.59;16109208;19;131918;-57
2023/07/27 15:52:06;;;;;;;26.85;2.83;;;;;;;21.94;54.77;100460.38;16111630;19;131711;-58
2023/07/27 15:57:28;;;;;;;25.30;2.63;;;;;;;21.91;54.87;100459.00;16114195;19;131254;-58
2023/07/27 16:02:50;;;;;;;24.10;2.53;;;;;;;21.88;55.09;100453.16;16112199;19;129648;-58
2023/07/27 16:08:12;;;;;;;11.82;2.08;;;;;;;21.81;54.61;100443.13;16109225;19;130916;-58
2023/07/27 16:13:34;;;;;;;4.05;1.25;;;;;;;21.67;53.30;100440.09;16107705;19;130948;-54
2023/07/27 16:18:56;;;;;;;7.65;1.30;;;;;;;21.55;53.23;100441.47;16116216;19;129757;-52
2023/07/27 16:24:18;;;;;;;4.40;1.27;;;;;;;21.57;53.29;100454.03;16114481;19;134503;-55
2023/07/27 16:29:40;;;;;;;7.22;1.10;;;;;;;21.59;52.76;100456.50;16111409;19;130194;-56
2023/07/27 16:35:02;;;;;;;2.65;1.20;;;;;;;21.59;52.90;100445.38;16108893;19;130303;-59
2023/07/27 16:40:24;;;;;;;3.10;1.40;;;;;;;21.61;52.81;100446.75;16110136;19;130502;-62
2023/07/27 16:45:46;;;;;;;5.80;1.38;;;;;;;21.63;52.72;100458.47;16112424;19;129487;-61
2023/07/27 16:51:08;;;;;;;12.23;2.97;;;;;;;21.64;52.31;100456.53;16117289;19;129869;-61
2023/07/27 16:56:30;;;;;;;10.23;3.35;;;;;;;21.64;52.55;100450.97;16116755;19;131581;-61
2023/07/27 17:01:53;;;;;;;10.38;3.70;;;;;;;21.65;52.19;100452.63;16113434;19;130623;-60
2023/07/27 17:07:15;;;;;;;13.18;3.67;;;;;;;21.64;52.34;100450.97;16115039;19;130817;-61
2023/07/27 17:12:37;;;;;;;13.73;2.53;;;;;;;21.64;52.05;100460.13;16110411;19;130469;-61
2023/07/27 17:17:59;;;;;;;12.95;3.05;;;;;;;21.63;52.22;100452.88;16109802;19;129781;-60
2023/07/27 17:23:22;;;;;;;12.77;3.20;;;;;;;21.63;52.02;100463.22;16110715;19;129562;-60
2023/07/27 17:28:44;;;;;;;10.13;3.20;;;;;;;21.64;52.25;100442.59;16109186;19;131663;-61
2023/07/27 17:34:07;;;;;;;7.65;2.67;;;;;;;21.63;52.35;100441.75;16110715;19;130900;-59
2023/07/27 17:39:29;;;;;;;6.40;2.30;;;;;;;21.64;52.34;100445.41;16043172;19;130263;-61
2023/07/27 17:44:51;;;;;;;12.60;2.53;;;;;;;21.63;52.24;100457.63;16128555;19;130482;-59
2023/07/27 17:50:13;;;;;;;9.98;2.50;;;;;;;21.62;52.21;100456.78;16127368;19;132091;-61
2023/07/27 17:55:36;;;;;;;6.63;1.90;;;;;;;21.63;52.20;100452.06;16127128;19;131648;-60
2023/07/27 18:00:58;;;;;;;9.00;1.73;;;;;;;21.62;52.53;100450.41;16123461;19;129941;-60
2023/07/27 18:06:20;;;;;;;5.82;2.20;;;;;;;21.60;52.33;100453.44;16122602;19;129720;-60
2023/07/27 18:11:42;;;;;;;4.80;2.00;;;;;;;21.58;52.47;100441.78;16122805;19;130542;-60
2023/07/27 18:17:05;;;;;;;11.02;2.28;;;;;;;21.59;52.12;100451.78;16119878;19;130906;-60
2023/07/27 18:22:28;;;;;;;11.82;2.05;;;;;;;21.58;52.57;100444.56;16119942;19;130128;-60
2023/07/27 18:27:50;;;;;;;44.72;3.58;;;;;;;21.59;52.35;100450.94;16119216;19;129449;-58
2023/07/27 18:33:12;;;;;;;14.63;2.15;;;;;;;21.60;52.67;100447.06;16120440;19;129851;-57
2023/07/27 18:38:34;;;;;;;13.25;2.65;;;;;;;21.64;52.08;100453.75;16122897;19;129964;-60
2023/07/27 18:43:56;;;;;;;10.13;2.20;;;;;;;21.68;51.89;100460.41;16120915;19;129904;-58
2023/07/27 18:49:18;;;;;;;18.30;2.38;;;;;;;21.70;52.29;100460.97;16119856;19;131687;-55
2023/07/27 18:54:40;;;;;;;6.65;1.67;;;;;;;21.70;52.25;100455.41;16122862;19;131046;-56
2023/07/27 19:00:04;;;;;;;10.40;1.85;;;;;;;21.74;52.40;100456.53;16114958;19;129660;-54
2023/07/27 19:05:26;;;;;;;15.95;1.88;;;;;;;21.75;52.05;100455.41;16118653;19;130540;-59
2023/07/27 19:10:48;;;;;;;5.15;1.67;;;;;;;21.78;52.00;100465.16;16119642;19;129273;-59
2023/07/27 19:16:11;;;;;;;4.07;1.20;;;;;;;21.80;52.12;100460.97;16112016;19;130908;-56
2023/07/27 19:21:33;;;;;;;4.97;1.45;;;;;;;21.83;51.88;100456.81;16116998;19;129733;-60
2023/07/27 19:26:55;;;;;;;6.70;1.30;;;;;;;21.84;51.45;100458.47;16116911;19;131447;-57
2023/07/27 19:32:17;;;;;;;7.40;1.55;;;;;;;21.85;51.81;100462.06;16118586;19;129359;-54
2023/07/27 19:37:39;;;;;;;4.22;1.10;;;;;;;21.87;51.63;100465.44;16114256;19;129925;-52
2023/07/27 19:43:01;;;;;;;5.20;1.15;;;;;;;21.88;51.26;100467.09;16115328;19;129282;-59
2023/07/27 19:48:23;;;;;;;5.40;1.30;;;;;;;21.89;51.40;100474.34;16117817;19;129238;-55
2023/07/27 19:53:46;;;;;;;4.07;0.90;;;;;;;21.91;51.56;100477.69;16108718;19;130658;-55
2023/07/27 19:59:07;;;;;;;5.40;1.17;;;;;;;21.90;51.52;100478.78;16111605;19;132367;-57
2023/07/27 20:04:29;;;;;;;1.50;0.77;;;;;;;21.89;51.19;100477.94;16109643;19;131089;-54
2023/07/27 20:09:51;;;;;;;11.98;1.23;;;;;;;21.90;51.06;100476.00;16114611;19;129902;-51
2023/07/27 20:15:13;;;;;;;7.95;1.13;;;;;;;21.91;51.24;100474.91;16116820;19;134290;-54
2023/07/27 20:20:39;;;;;;;8.07;1.23;;;;;;;21.89;51.41;100468.75;16112591;19;129791;-53
2023/07/27 20:26:01;;;;;;;9.97;1.03;;;;;;;21.87;51.39;100468.22;16108613;19;129910;-56
2023/07/27 20:31:23;;;;;;;5.75;0.93;;;;;;;21.86;51.17;100477.66;16105991;19;130220;-52
2023/07/27 20:36:46;;;;;;;6.03;0.98;;;;;;;21.85;51.13;100476.00;16105059;19;131094;-55
2023/07/27 20:42:08;;;;;;;12.45;1.27;;;;;;;21.83;51.21;100479.91;16104591;19;129726;-55
2023/07/27 20:47:31;;;;;;;14.77;1.55;;;;;;;21.82;50.89;100486.56;16105898;19;129666;-54
2023/07/27 20:52:54;;;;;;;15.23;1.50;;;;;;;21.81;50.81;100473.75;16104032;19;130302;-55
2023/07/27 20:58:15;;;;;;;9.70;1.20;;;;;;;21.79;50.92;100467.63;16109254;19;131653;-56
2023/07/27 21:03:38;;;;;;;8.57;1.50;;;;;;;21.79;50.98;100462.06;16110308;19;130818;-55
2023/07/27 21:09:00;;;;;;;14.35;1.45;;;;;;;21.78;50.91;100473.50;16110957;19;129622;-56
2023/07/27 21:14:22;;;;;;;5.53;1.40;;;;;;;21.77;50.59;100464.31;16119131;19;130564;-57
2023/07/27 21:19:45;;;;;;;6.70;1.15;;;;;;;21.77;50.91;100474.59;16123069;19;130432;-57
2023/07/27 21:25:07;;;;;;;5.47;1.40;;;;;;;21.76;50.67;100457.09;16123762;19;129507;-57
2023/07/27 21:30:29;;;;;;;3.80;1.27;;;;;;;21.75;50.71;100460.97;16119041;19;131121;-56
2023/07/27 21:35:51;;;;;;;5.10;0.82;;;;;;;21.73;50.54;100463.19;16120279;19;131239;-54
2023/07/27 21:41:13;;;;;;;3.55;0.80;;;;;;;21.73;50.71;100457.63;16121845;19;130173;-55
2023/07/27 21:46:35;;;;;;;3.92;1.00;;;;;;;21.71;50.68;100459.84;16120941;19;130457;-53
2023/07/27 21:51:57;;;;;;;4.53;1.10;;;;;;;21.71;50.85;100459.84;16121771;19;130427;-58
2023/07/27 21:57:19;;;;;;;7.75;1.38;;;;;;;21.70;50.64;100458.19;16122221;19;130872;-57
2023/07/27 22:02:41;;;;;;;4.85;0.82;;;;;;;21.70;50.32;100457.38;16118933;19;129816;-57
2023/07/27 22:08:03;;;;;;;2.47;0.98;;;;;;;21.69;50.82;100462.06;16120751;19;130003;-57
2023/07/27 22:13:25;;;;;;;4.20;0.90;;;;;;;21.67;50.65;100448.44;16115686;19;131548;-58
2023/07/27 22:18:47;;;;;;;3.95;0.75;;;;;;;21.67;50.38;100455.94;16120562;19;131801;-55
2023/07/27 22:24:08;;;;;;;5.63;0.77;;;;;;;21.67;50.52;100458.72;16115037;19;130025;-52
2023/07/27 22:29:30;;;;;;;4.90;1.00;;;;;;;21.65;50.37;100452.63;16118950;19;129773;-57
2023/07/27 22:34:52;;;;;;;2.58;0.80;;;;;;;21.64;50.68;100451.78;16121584;19;130134;-57
2023/07/27 22:40:14;;;;;;;4.25;1.05;;;;;;;21.64;50.48;100453.75;16122645;19;129776;-57
2023/07/27 22:45:37;;;;;;;3.60;0.90;;;;;;;21.63;50.50;100464.03;16116311;19;131250;-58
2023/07/27 22:50:59;;;;;;;1.88;0.70;;;;;;;21.63;50.11;100460.41;16120996;19;130659;-56
2023/07/27 22:56:20;;;;;;;3.97;0.80;;;;;;;21.61;50.38;100463.47;16111784;19;130794;-56
2023/07/27 23:01:42;;;;;;;1.42;0.70;;;;;;;21.61;50.49;100465.44;16114513;19;130879;-54
2023/07/27 23:07:04;;;;;;;2.25;0.73;;;;;;;21.60;50.14;100459.00;16117060;19;129831;-54
2023/07/27 23:12:26;;;;;;;1.48;0.63;;;;;;;21.59;50.23;100462.94;16114369;19;131934;-58
2023/07/27 23:17:49;;;;;;;1.17;0.52;;;;;;;21.59;50.14;100474.06;16114784;19;129668;-58
2023/07/27 23:23:11;;;;;;;2.22;0.80;;;;;;;21.57;50.22;100467.09;16117522;19;131138;-56
2023/07/27 23:28:32;;;;;;;2.50;0.70;;;;;;;21.58;50.60;100468.75;16114445;19;131046;-57
2023/07/27 23:33:56;;;;;;;3.05;0.80;;;;;;;21.57;50.28;100469.88;16112254;19;131481;-56
2023/07/27 23:39:18;;;;;;;2.25;0.77;;;;;;;21.55;50.64;100467.38;16115198;19;130378;-56
2023/07/27 23:44:40;;;;;;;3.28;0.73;;;;;;;21.55;50.58;100469.31;16107548;19;129405;-56
2023/07/27 23:50:02;;;;;;;1.20;0.70;;;;;;;21.55;50.29;100460.97;16114679;19;130988;-56
2023/07/27 23:55:23;;;;;;;2.33;0.57;;;;;;;21.54;50.16;100459.31;16112764;19;130801;-57
